Time;durP1;ratioP1;P1;durP2;ratioP2;P2;SDS_P1;SDS_P2;PMS_P1;PMS_P2;Temp;Humidity;BMP_temperature;BMP_pressure;BME280_temperature;BME280_humidity;BME280_pressure;Samples;Min_cycle;Max_cycle;Signal;HPM_P1;HPM_P2
2022/02/04 00:25:07;;;;;;;;;17.00;14.75;;;;;9.25;64.03;101252.63;5039469;28;45306;-46
2022/02/04 00:27:33;;;;;;;;;16.50;12.50;;;;;9.24;64.09;101245.63;5042393;28;45394;-44
2022/02/04 00:30:10;;;;;;;;;18.00;17.50;;;;;9.23;63.97;101250.00;5039285;28;45634;-45
2022/02/04 00:32:36;;;;;;;;;15.00;13.00;;;;;9.19;64.20;101236.88;5040185;28;46243;-44
2022/02/04 00:35:26;;;;;;;;;20.75;15.75;;;;;9.22;63.94;101240.38;5039904;28;45287;-41
2022/02/04 00:38:18;;;;;;;;;17.75;15.00;;;;;9.22;64.09;101237.75;5040013;28;45236;-45
2022/02/04 00:40:41;;;;;;;;;19.50;16.25;;;;;9.21;63.88;101235.13;5039593;28;45525;-41
2022/02/04 00:43:10;;;;;;;;;17.75;16.25;;;;;9.21;64.16;101233.38;5039466;28;46967;-45
2022/02/04 00:45:50;;;;;;;;;18.75;15.25;;;;;9.21;64.08;101229.91;5039822;28;45524;-42
2022/02/04 00:48:32;;;;;;;;;13.00;12.00;;;;;9.17;64.18;101234.25;5038719;28;45275;-44
2022/02/04 00:51:13;;;;;;;;;14.75;13.50;;;;;9.17;64.20;101228.13;5039857;28;45342;-43
2022/02/04 01:28:32;;;;;;;;;18.25;14.75;;;;;9.10;64.24;101238.63;5039184;28;45438;-43
2022/02/04 01:30:58;;;;;;;;;19.00;15.50;;;;;9.13;64.24;101229.88;5039802;28;45198;-43
2022/02/04 01:33:24;;;;;;;;;14.50;13.25;;;;;9.13;64.38;101234.25;5039257;28;45212;-45
2022/02/04 01:35:50;;;;;;;;;15.75;14.50;;;;;9.14;64.34;101238.63;5039663;28;45207;-45
2022/02/04 01:38:15;;;;;;;;;14.50;13.00;;;;;9.14;64.59;101236.00;5039435;28;45235;-43
2022/02/04 01:40:41;;;;;;;;;19.25;13.75;;;;;9.15;64.55;101237.75;5039234;28;45323;-43
2022/02/04 01:43:06;;;;;;;;;20.50;15.00;;;;;9.15;64.26;101229.91;5039355;28;45525;-44
2022/02/04 01:45:32;;;;;;;;;14.50;14.00;;;;;9.14;64.51;101226.38;5039080;28;45323;-42
2022/02/04 01:47:57;;;;;;;;;16.75;14.25;;;;;9.17;64.56;101236.00;5039306;28;45408;-44
2022/02/04 01:50:25;;;;;;;;;21.00;16.00;;;;;9.19;64.41;101237.75;5039481;28;45295;-46
2022/02/04 01:52:50;;;;;;;;;16.00;13.50;;;;;9.20;64.42;101233.38;5039054;28;45523;-43
2022/02/04 01:55:17;;;;;;;;;14.50;12.50;;;;;9.19;64.27;101226.38;5039305;28;45435;-43
2022/02/04 01:57:43;;;;;;;;;17.50;13.75;;;;;9.21;64.50;101229.91;5042600;28;45288;-44
2022/02/04 02:00:10;;;;;;;;;17.50;14.00;;;;;9.21;64.49;101228.13;5041080;28;45284;-43
2022/02/04 02:02:35;;;;;;;;;21.25;17.75;;;;;9.22;64.50;101226.38;5042564;28;45586;-45
2022/02/04 02:05:01;;;;;;;;;15.25;15.25;;;;;9.21;64.35;101230.75;5042505;28;46112;-42
2022/02/04 02:07:28;;;;;;;;;14.50;13.50;;;;;9.21;64.63;101225.50;5042428;28;45314;-44
2022/02/04 02:10:06;;;;;;;;;21.25;18.25;;;;;9.23;64.56;101229.03;5042658;28;45260;-43
2022/02/04 02:12:40;;;;;;;;;13.25;12.50;;;;;9.24;64.39;101229.88;5042317;28;45291;-42
2022/02/04 02:15:18;;;;;;;;;22.75;17.00;;;;;9.21;64.52;101222.03;5042009;28;46177;-45
2022/02/04 02:40:19;;;;;;;;;24.25;16.75;;;;;9.18;64.77;101199.31;5041821;28;45204;-43
2022/02/04 02:45:48;;;;;;;;;24.50;20.25;;;;;9.18;64.65;101196.69;5041495;28;45311;-43
2022/02/04 02:55:25;;;;;;;;;21.25;18.00;;;;;9.16;64.95;101189.69;5041721;28;45566;-43
2022/02/04 02:58:05;;;;;;;;;23.00;19.75;;;;;9.17;64.80;101188.78;5041561;28;45728;-42
2022/02/04 03:03:18;;;;;;;;;18.50;15.50;;;;;9.14;64.85;101192.28;5041815;28;45441;-44
2022/02/04 03:05:43;;;;;;;;;16.75;15.25;;;;;9.09;64.85;101180.94;5041475;28;45461;-44
2022/02/04 03:08:10;;;;;;;;;17.25;13.50;;;;;9.10;64.71;101190.56;5041257;28;45432;-44
2022/02/04 03:10:36;;;;;;;;;14.75;11.50;;;;;9.02;64.90;101174.84;5041399;28;45212;-44
2022/02/04 03:13:01;;;;;;;;;16.75;14.50;;;;;9.05;64.93;101179.22;5041843;28;45415;-45
2022/02/04 03:15:27;;;;;;;;;14.75;13.50;;;;;9.03;64.77;101181.84;5041080;28;45368;-42
2022/02/04 03:18:05;;;;;;;;;12.75;9.75;;;;;9.04;64.92;101180.06;5041430;28;46092;-44
2022/02/04 03:20:42;;;;;;;;;17.50;13.75;;;;;9.02;64.67;101177.47;5041364;28;45231;-42
2022/02/04 03:23:07;;;;;;;;;16.75;15.25;;;;;9.01;64.40;101172.22;5041577;28;45225;-44
2022/02/04 03:25:38;;;;;;;;;19.50;16.00;;;;;9.02;64.68;101179.19;5041122;28;45308;-42
2022/02/04 03:28:04;;;;;;;;;17.00;17.00;;;;;9.01;64.96;101177.47;5041346;28;45546;-43
2022/02/04 03:30:33;;;;;;;;;16.00;12.00;;;;;9.00;64.94;101160.00;5040656;28;45463;-44
2022/02/04 03:33:03;;;;;;;;;14.50;13.25;;;;;8.99;64.72;101164.34;5041411;28;45378;-45
2022/02/04 03:35:29;;;;;;;;;18.25;14.25;;;;;8.96;64.89;101155.63;5039934;28;45723;-46
2022/02/04 03:37:56;;;;;;;;;18.75;17.50;;;;;8.96;64.85;101163.50;5041023;28;45309;-45
2022/02/04 03:40:22;;;;;;;;;24.50;22.25;;;;;8.94;65.03;101164.38;5040922;28;45216;-44
2022/02/04 03:42:48;;;;;;;;;20.00;18.50;;;;;8.95;65.06;101159.97;5041173;28;45197;-44
2022/02/04 03:45:14;;;;;;;;;16.00;13.25;;;;;8.97;65.01;101160.88;5039731;28;45538;-43
2022/02/04 03:47:40;;;;;;;;;18.50;15.75;;;;;8.93;64.98;101162.63;5040975;28;45173;-45
2022/02/04 03:50:06;;;;;;;;;21.00;19.00;;;;;8.97;65.11;101162.59;5040852;28;45157;-46
2022/02/04 03:52:32;;;;;;;;;18.75;16.00;;;;;8.95;64.89;101157.38;5040923;28;45382;-47
2022/02/04 03:54:57;;;;;;;;;21.50;17.50;;;;;8.95;65.09;101159.97;5039484;28;45731;-44
2022/02/04 03:57:23;;;;;;;;;19.75;18.25;;;;;8.96;65.19;101158.25;5040754;28;46071;-43
2022/02/04 03:59:48;;;;;;;;;17.00;14.50;;;;;8.93;65.22;101159.09;5039345;28;45460;-43
2022/02/04 04:02:14;;;;;;;;;19.25;16.75;;;;;8.89;65.12;101163.50;5039586;28;45314;-43
2022/02/04 04:04:40;;;;;;;;;18.50;15.75;;;;;8.92;64.94;101168.72;5040787;28;45365;-44
2022/02/04 04:07:05;;;;;;;;;21.50;16.00;;;;;8.92;65.17;101165.25;5040632;28;46206;-43
2022/02/04 04:09:33;;;;;;;;;15.00;14.00;;;;;8.90;65.02;101153.88;5040447;28;45392;-44
2022/02/04 04:11:59;;;;;;;;;19.00;15.00;;;;;8.86;65.26;101168.72;5040706;28;45237;-46
2022/02/04 04:14:24;;;;;;;;;17.00;16.00;;;;;8.82;65.29;101161.75;5039022;28;45317;-47
2022/02/04 04:16:50;;;;;;;;;18.75;13.75;;;;;8.82;65.17;101153.00;5038981;28;46094;-44
2022/02/04 04:19:15;;;;;;;;;16.25;14.50;;;;;8.82;65.45;101153.00;5038694;28;45251;-44
2022/02/04 04:21:41;;;;;;;;;13.25;10.75;;;;;8.83;65.16;101150.41;5040571;28;45296;-47
2022/02/04 04:24:07;;;;;;;;;15.75;13.25;;;;;8.84;65.39;101146.00;5040404;28;45382;-46
2022/02/04 04:26:32;;;;;;;;;16.50;14.25;;;;;8.82;65.34;101142.50;5040290;28;46270;-44
2022/02/04 04:28:58;;;;;;;;;20.75;16.00;;;;;8.82;65.33;101147.75;5040067;28;45330;-44
2022/02/04 04:31:23;;;;;;;;;18.50;14.75;;;;;8.87;64.99;101154.75;5039010;28;45346;-43
2022/02/04 04:33:49;;;;;;;;;14.75;12.75;;;;;8.88;65.37;101147.75;5040369;28;45371;-42
2022/02/04 04:36:14;;;;;;;;;19.50;17.00;;;;;8.89;65.21;101146.88;5040107;28;46121;-44
2022/02/04 04:38:46;;;;;;;;;23.25;22.00;;;;;8.88;65.26;101146.03;5040352;28;45257;-45
2022/02/04 04:44:07;;;;;;;;;19.75;19.00;;;;;8.87;65.11;101146.88;5039960;28;45620;-44
2022/02/04 05:30:04;;;;;;;;;22.50;21.50;;;;;8.90;65.68;101125.91;5039152;28;45422;-45
2022/02/04 05:32:30;;;;;;;;;26.25;20.00;;;;;8.91;65.96;101126.78;5042836;28;45252;-45
2022/02/04 05:34:55;;;;;;;;;25.75;21.50;;;;;8.88;66.07;101122.44;5043238;28;45318;-44
2022/02/04 05:37:23;;;;;;;;;24.25;16.25;;;;;8.91;65.65;101129.41;5041765;28;45259;-46
2022/02/04 05:42:21;;;;;;;;;24.75;22.50;;;;;8.97;66.07;101120.66;5042631;28;45385;-43
2022/02/04 05:44:54;;;;;;;;;22.25;20.50;;;;;8.98;65.70;101125.03;5025182;28;45381;-44
2022/02/04 05:47:20;;;;;;;;;21.00;18.25;;;;;8.99;65.73;101118.91;5042709;28;45398;-44
2022/02/04 05:50:01;;;;;;;;;22.75;20.75;;;;;8.97;65.72;101120.66;5042396;28;46083;-43
2022/02/04 05:52:29;;;;;;;;;21.50;19.75;;;;;8.99;65.87;101118.91;5042772;28;45411;-46
2022/02/04 05:55:20;;;;;;;;;23.00;21.75;;;;;9.01;65.84;101122.41;5029902;28;45369;-45
2022/02/04 06:03:12;;;;;;;;;25.50;21.50;;;;;9.02;65.72;101122.41;5042482;28;45181;-43
2022/02/04 06:23:56;;;;;;;;;25.75;22.50;;;;;9.04;66.04;101106.66;5041059;28;45363;-43
2022/02/04 06:26:23;;;;;;;;;14.75;14.75;;;;;9.04;65.77;101112.81;5042456;28;45244;-43
2022/02/04 06:28:48;;;;;;;;;29.50;22.25;;;;;9.09;65.86;101116.28;5041949;28;45405;-44
2022/02/04 06:31:14;;;;;;;;;28.25;27.25;;;;;9.05;66.11;101114.53;5041906;28;45319;-44
2022/02/04 06:33:39;;;;;;;;;21.50;20.25;;;;;9.03;65.98;101108.44;5042038;28;45335;-43
2022/02/04 06:36:05;;;;;;;;;26.50;23.00;;;;;9.05;66.00;101113.66;5042285;28;45386;-42
2022/02/04 06:38:31;;;;;;;;;25.00;22.25;;;;;9.03;65.94;101107.53;5040760;28;45275;-44
2022/02/04 06:40:57;;;;;;;;;24.50;22.00;;;;;9.01;65.94;101106.69;5041413;28;45367;-47
2022/02/04 06:43:22;;;;;;;;;23.25;21.00;;;;;9.00;65.94;101097.94;5041433;28;45271;-44
2022/02/04 06:45:48;;;;;;;;;21.25;21.25;;;;;9.00;66.17;101110.19;5042234;28;45360;-42
2022/02/04 06:48:13;;;;;;;;;26.25;23.75;;;;;8.96;66.28;101098.81;5041676;28;45224;-44
2022/02/04 06:50:39;;;;;;;;;20.75;20.75;;;;;8.98;66.08;101091.84;5041747;28;45286;-45
2022/02/04 06:53:05;;;;;;;;;23.00;18.75;;;;;9.01;66.22;101104.06;5041564;28;45272;-43
2022/02/04 06:55:31;;;;;;;;;27.50;22.50;;;;;8.98;65.99;101091.84;5041866;28;45462;-45
2022/02/04 06:57:57;;;;;;;;;23.50;19.00;;;;;8.99;65.84;101096.19;5036812;28;45585;-48
2022/02/04 07:00:26;;;;;;;;;28.25;23.50;;;;;8.99;66.13;101095.31;5041677;28;46046;-43
2022/02/04 07:02:52;;;;;;;;;21.75;19.75;;;;;8.98;66.14;101089.22;5037705;28;45610;-44
2022/02/04 07:05:18;;;;;;;;;24.75;22.00;;;;;9.02;66.13;101087.44;5033595;28;45162;-43
2022/02/04 07:07:55;;;;;;;;;22.50;21.75;;;;;9.01;66.15;101090.97;5031950;28;45311;-46
2022/02/04 07:10:30;;;;;;;;;18.75;17.25;;;;;9.02;65.95;101092.69;5041407;28;46285;-43
2022/02/04 07:13:05;;;;;;;;;21.00;17.00;;;;;9.03;66.21;101094.44;5040942;28;45390;-43
2022/02/04 07:20:49;;;;;;;;;25.00;23.25;;;;;9.07;66.15;101096.19;5041013;28;45299;-46
2022/02/04 07:23:14;;;;;;;;;23.50;21.25;;;;;9.07;66.04;101097.06;5039675;28;45405;-43
2022/02/04 07:25:40;;;;;;;;;23.75;21.50;;;;;9.07;65.90;101099.66;5031951;28;45248;-42
2022/02/04 07:28:05;;;;;;;;;21.50;18.25;;;;;9.10;66.06;101085.69;5038137;28;45583;-43
2022/02/04 07:30:31;;;;;;;;;25.00;22.75;;;;;9.10;66.29;101091.78;5028941;28;45492;-43
2022/02/04 07:33:07;;;;;;;;;28.00;24.25;;;;;9.12;66.49;101091.81;5041721;28;45516;-42
2022/02/04 07:38:35;;;;;;;;;20.75;18.25;;;;;9.09;66.62;101092.69;5041272;28;45330;-43
2022/02/04 07:41:04;;;;;;;;;22.25;20.50;;;;;9.03;66.61;101082.22;5038094;28;45509;-44
2022/02/04 07:43:31;;;;;;;;;30.75;28.75;;;;;9.07;66.27;101086.56;5028409;28;45323;-46
2022/02/04 07:45:57;;;;;;;;;22.00;17.75;;;;;9.10;66.33;101078.69;5038308;28;45401;-44
2022/02/04 07:48:24;;;;;;;;;26.00;22.75;;;;;9.11;66.37;101083.06;5030479;28;45252;-43
2022/02/04 07:50:50;;;;;;;;;25.50;22.00;;;;;9.12;66.52;101083.94;5036906;28;46178;-41
2022/02/04 07:53:17;;;;;;;;;21.75;21.00;;;;;9.12;66.34;101078.69;5035835;28;45219;-41
2022/02/04 07:55:43;;;;;;;;;23.75;21.50;;;;;9.13;66.15;101074.31;5038936;28;45393;-42
2022/02/04 07:58:11;;;;;;;;;21.50;21.50;;;;;9.13;66.29;101074.31;5058043;28;45555;-43
2022/02/04 08:00:38;;;;;;;;;24.75;22.75;;;;;9.15;66.51;101067.31;5039211;28;48209;-43
2022/02/04 08:03:17;;;;;;;;;24.75;22.25;;;;;9.15;66.42;101072.56;5046570;28;45429;-42
2022/02/04 08:05:43;;;;;;;;;22.00;18.25;;;;;9.14;66.39;101063.81;5040438;28;45520;-41
2022/02/04 08:08:20;;;;;;;;;22.00;19.00;;;;;9.13;66.26;101069.06;5049849;28;45404;-42
2022/02/04 08:18:44;;;;;;;;;22.25;19.25;;;;;9.15;66.30;101067.31;5040657;28;45339;-43
2022/02/04 08:21:23;;;;;;;;;20.00;17.75;;;;;9.15;66.80;101073.44;5049617;28;45286;-42
2022/02/04 08:46:31;;;;;;;;;18.00;15.25;;;;;9.09;66.66;101069.09;5060222;28;45208;-42
2022/02/04 08:51:24;;;;;;;;;13.50;12.75;;;;;9.15;66.64;101088.31;5060149;28;45181;-42
2022/02/04 08:55:59;;;;;;;;;26.00;22.50;;;;;9.14;66.74;101076.91;5042066;28;45311;-42
2022/02/04 09:01:09;;;;;;;;;15.00;15.00;;;;;9.14;66.66;101076.06;5057733;28;45165;-40
2022/02/04 09:06:17;;;;;;;;;17.00;15.50;;;;;9.17;66.61;101079.56;5026369;28;45493;-42
2022/02/04 09:08:46;;;;;;;;;16.50;16.50;;;;;9.18;66.92;101067.31;5038611;28;45289;-42
2022/02/04 09:11:26;;;;;;;;;16.75;14.25;;;;;9.18;66.48;101072.53;5038401;28;45497;-43
2022/02/04 09:19:21;;;;;;;;;15.00;13.75;;;;;9.22;66.71;101066.41;5039734;28;45205;-41
2022/02/04 09:22:04;;;;;;;;;15.75;14.00;;;;;9.26;66.70;101076.03;5039546;28;45565;-43
2022/02/04 09:24:30;;;;;;;;;12.75;9.25;;;;;9.27;66.74;101072.53;5039327;28;46349;-45
2022/02/04 09:26:55;;;;;;;;;16.25;14.75;;;;;9.27;66.75;101065.53;5038094;28;45267;-44
2022/02/04 09:29:21;;;;;;;;;17.25;13.50;;;;;9.31;66.67;101057.63;5039668;28;45410;-41
2022/02/04 09:31:47;;;;;;;;;14.25;13.00;;;;;9.33;66.48;101053.25;5039344;28;45597;-42
2022/02/04 09:34:12;;;;;;;;;14.00;8.75;;;;;9.36;66.50;101061.13;5039515;28;45968;-42
2022/02/04 09:36:38;;;;;;;;;13.50;13.25;;;;;9.40;66.60;101055.00;5038063;28;45350;-41
2022/02/04 09:39:06;;;;;;;;;14.75;13.75;;;;;9.42;66.27;101059.34;5039553;28;45406;-44
2022/02/04 09:41:33;;;;;;;;;12.00;11.75;;;;;9.44;66.41;101054.09;5039103;28;45484;-42
2022/02/04 09:43:59;;;;;;;;;15.75;14.50;;;;;9.46;66.44;101054.97;5039027;28;46492;-42
2022/02/04 09:46:24;;;;;;;;;12.00;12.00;;;;;9.49;66.53;101051.47;5039225;28;45287;-41
2022/02/04 09:48:55;;;;;;;;;14.25;12.50;;;;;9.51;66.33;101052.31;5039572;28;45325;-44
2022/02/04 09:51:28;;;;;;;;;14.75;14.50;;;;;9.53;66.70;101048.78;5039222;28;45310;-42
2022/02/04 10:04:34;;;;;;;;;17.25;13.00;;;;;9.58;66.59;101054.03;5039105;28;45392;-42
2022/02/04 10:14:12;;;;;;;;;13.50;10.75;;;;;9.71;66.44;101049.56;5038723;28;45336;-42
2022/02/04 10:17:04;;;;;;;;;16.50;14.75;;;;;9.73;66.57;101053.06;5039691;28;46339;-42
2022/02/04 10:19:42;;;;;;;;;11.25;11.25;;;;;9.74;66.37;101062.69;5042133;28;45457;-41
2022/02/04 10:22:07;;;;;;;;;20.50;16.75;;;;;9.74;66.52;101042.56;5042278;28;45699;-42
2022/02/04 10:24:34;;;;;;;;;14.00;11.25;;;;;9.79;66.48;101046.94;5042327;28;45214;-42
2022/02/04 10:27:17;;;;;;;;;7.00;6.00;;;;;9.80;66.27;101032.91;5042100;28;46374;-42
2022/02/04 10:29:50;;;;;;;;;15.75;13.75;;;;;9.82;66.60;101028.53;5041839;28;45261;-43
2022/02/04 10:32:15;;;;;;;;;12.00;10.25;;;;;9.84;66.53;101027.63;5042213;28;45509;-43
2022/02/04 10:34:43;;;;;;;;;14.75;13.00;;;;;9.86;66.47;101018.00;5042160;28;45304;-42
2022/02/04 10:37:26;;;;;;;;;12.50;12.50;;;;;9.90;66.55;101021.47;5042108;28;46931;-42
2022/02/04 10:40:00;;;;;;;;;14.50;13.00;;;;;9.93;66.53;101029.31;5041770;28;45247;-42
2022/02/04 11:03:26;;;;;;;;;6.00;5.00;;;;;10.07;66.14;101011.72;5041980;28;45257;-43
2022/02/04 11:06:09;;;;;;;;;7.25;7.00;;;;;10.13;66.28;101012.56;5041547;28;45250;-41
2022/02/04 11:09:24;;;;;;;;;7.00;7.00;;;;;10.13;66.50;101023.94;5041654;28;46153;-43
2022/02/04 11:31:07;;;;;;;;;7.00;6.50;;;;;10.21;66.63;101001.13;5061297;28;45403;-43
2022/02/04 11:34:06;;;;;;;;;8.25;8.25;;;;;10.23;66.73;100993.22;5061321;28;45224;-44
2022/02/04 11:55:09;;;;;;;;;5.50;5.25;;;;;10.48;66.54;100980.75;5050094;28;45260;-43
2022/02/04 11:57:37;;;;;;;;;5.75;5.75;;;;;10.49;66.67;100973.72;5040934;28;45536;-42
2022/02/04 12:00:20;;;;;;;;;6.00;6.00;;;;;10.50;66.49;100963.22;5040608;28;45406;-44
2022/02/04 12:02:53;;;;;;;;;6.75;6.75;;;;;10.53;66.60;100959.69;5040842;28;45481;-43
2022/02/04 12:05:19;;;;;;;;;5.25;5.25;;;;;10.54;66.29;100958.78;5040626;28;45430;-43
2022/02/04 12:07:50;;;;;;;;;9.00;5.75;;;;;10.57;66.48;100943.00;5040951;28;45370;-43
2022/02/04 12:10:30;;;;;;;;;4.75;4.75;;;;;10.59;66.38;100935.09;5040624;28;45414;-42
2022/02/04 12:13:09;;;;;;;;;4.00;3.25;;;;;10.64;66.31;100943.78;5040269;28;46267;-42
2022/02/04 12:15:43;;;;;;;;;3.25;2.00;;;;;10.65;66.25;100922.75;5040518;28;45228;-42
2022/02/04 12:18:19;;;;;;;;;4.25;4.25;;;;;10.70;66.57;100914.81;5040714;28;45241;-43
2022/02/04 12:20:45;;;;;;;;;5.00;4.00;;;;;10.75;66.50;100917.38;5039230;28;45758;-42
2022/02/04 12:26:09;;;;;;;;;5.00;4.00;;;;;10.93;66.09;100913.66;5040443;28;45295;-43
2022/02/04 12:28:52;;;;;;;;;18.25;11.25;;;;;11.03;66.13;100896.84;5040271;28;45408;-42
2022/02/04 12:31:29;;;;;;;;;6.50;5.00;;;;;11.08;66.21;100895.06;5040089;28;45323;-42
2022/02/04 12:34:11;;;;;;;;;4.00;3.00;;;;;11.24;66.11;100897.47;5040039;28;46191;-45
2022/02/04 12:36:49;;;;;;;;;5.00;5.00;;;;;11.34;66.08;100888.53;5040128;28;45354;-44
2022/02/04 12:39:23;;;;;;;;;2.75;2.75;;;;;11.45;65.85;100868.19;5039552;28;45401;-44
2022/02/04 12:41:54;;;;;;;;;3.25;3.25;;;;;11.57;65.84;100861.84;5040028;28;45560;-43
2022/02/04 12:44:23;;;;;;;;;5.00;4.00;;;;;11.70;65.82;100881.81;5039674;28;45245;-43
2022/02/04 12:46:54;;;;;;;;;4.00;4.00;;;;;11.79;65.46;100861.50;5040092;28;45334;-43
2022/02/04 12:49:22;;;;;;;;;4.75;3.75;;;;;11.91;65.69;100853.41;5040133;28;45298;-44
2022/02/04 12:52:06;;;;;;;;;2.50;2.50;;;;;11.98;65.28;100841.00;5039974;28;45419;-44
2022/02/04 12:54:45;;;;;;;;;5.00;4.00;;;;;12.09;65.35;100840.78;5026594;28;46228;-42
2022/02/04 13:08:20;;;;;;;;;2.00;2.00;;;;;12.55;64.69;100820.56;5039798;28;45344;-42
2022/02/04 13:10:55;;;;;;;;;4.25;3.25;;;;;12.59;64.58;100848.59;5039631;28;45339;-42
2022/02/04 13:13:21;;;;;;;;;4.25;3.00;;;;;12.63;64.67;100831.84;5039521;28;45303;-41
2022/02/04 13:15:47;;;;;;;;;4.00;4.00;;;;;12.67;64.65;100812.41;5039652;28;45314;-44
2022/02/04 13:18:15;;;;;;;;;5.00;5.00;;;;;12.71;64.39;100813.22;5038430;28;45260;-42
2022/02/04 13:20:46;;;;;;;;;4.50;2.75;;;;;12.72;64.28;100812.31;5038558;28;45235;-45
2022/02/04 13:23:15;;;;;;;;;5.00;3.50;;;;;12.72;64.43;100791.22;5039743;28;45280;-42
2022/02/04 13:25:46;;;;;;;;;5.50;4.75;;;;;12.75;64.15;100791.16;5039567;28;45292;-42
2022/02/04 13:28:26;;;;;;;;;3.00;3.00;;;;;12.76;64.04;100804.28;5039321;28;45437;-43
2022/02/04 13:31:01;;;;;;;;;3.75;3.75;;;;;12.76;64.14;100788.47;5039549;28;45337;-41
2022/02/04 13:33:50;;;;;;;;;2.00;2.00;;;;;12.75;64.06;100776.19;5038133;28;45393;-43
2022/02/04 13:41:36;;;;;;;;;2.00;2.00;;;;;12.71;63.64;100800.88;5039301;28;45228;-42
2022/02/04 13:44:36;;;;;;;;;1.00;1.00;;;;;12.80;63.41;100792.78;5039143;28;45403;-42
2022/02/04 13:53:19;;;;;;;;;1.75;1.00;;;;;12.74;63.09;100795.56;5041241;28;45271;-43
2022/02/04 13:55:41;;;;;;;;;2.00;1.25;;;;;12.70;62.39;100803.56;5036929;28;45461;-43
2022/02/04 14:03:25;;;;;;;;;1.50;1.50;;;;;12.64;62.72;100812.47;5042723;28;45315;-42
2022/02/04 14:05:59;;;;;;;;;2.00;2.00;;;;;12.59;62.56;100838.06;5042418;28;45375;-44
2022/02/04 14:08:35;;;;;;;;;3.50;2.00;;;;;12.58;62.33;100823.13;5042517;28;46231;-42
2022/02/04 14:11:05;;;;;;;;;1.25;1.25;;;;;12.56;62.29;100822.31;5042092;28;45311;-46
2022/02/04 14:13:31;;;;;;;;;1.25;1.25;;;;;12.54;62.08;100830.28;5042304;28;45179;-42
2022/02/04 14:16:01;;;;;;;;;2.00;2.00;;;;;12.49;62.69;100827.72;5042576;28;45325;-43
2022/02/04 14:18:28;;;;;;;;;4.00;2.00;;;;;12.47;62.20;100824.22;5042228;28;45290;-42
2022/02/04 14:20:54;;;;;;;;;3.25;2.00;;;;;12.45;62.53;100819.91;5042209;28;45255;-42
2022/02/04 14:23:20;;;;;;;;;2.00;2.00;;;;;12.45;62.11;100846.25;5042408;28;45252;-43
2022/02/04 14:25:56;;;;;;;;;2.00;2.00;;;;;12.45;62.07;100827.81;5042157;28;45490;-43
2022/02/04 14:28:30;;;;;;;;;1.00;1.00;;;;;12.42;62.26;100830.50;5041967;28;45430;-44
2022/02/04 14:31:03;;;;;;;;;1.50;1.00;;;;;12.38;62.25;100842.00;5042066;28;45260;-42
2022/02/04 14:52:57;;;;;;;;;2.00;2.00;;;;;12.27;62.35;100858.03;5041627;28;45566;-41
2022/02/04 15:00:55;;;;;;;;;1.25;1.25;;;;;12.21;62.52;100880.09;5041676;28;45398;-43
2022/02/04 15:06:05;;;;;;;;;1.00;1.00;;;;;12.18;62.48;100896.81;5041686;28;45351;-43
2022/02/04 15:08:35;;;;;;;;;1.00;1.00;;;;;12.17;62.25;100899.50;5041545;28;45379;-43
2022/02/04 15:11:05;;;;;;;;;4.00;2.00;;;;;12.14;62.71;100932.03;5041178;28;45898;-42
2022/02/04 15:13:31;;;;;;;;;0.75;0.75;;;;;12.13;62.92;100951.34;5041370;28;45549;-43
2022/02/04 15:15:59;;;;;;;;;1.00;1.00;;;;;12.12;62.90;100954.03;5041704;28;45169;-44
2022/02/04 15:18:25;;;;;;;;;1.75;1.00;;;;;12.03;62.99;100965.59;5040160;28;45284;-44
2022/02/04 15:20:58;;;;;;;;;1.00;1.00;;;;;11.99;62.78;100963.91;5041341;28;45215;-43
2022/02/04 15:23:23;;;;;;;;;1.00;1.00;;;;;11.90;62.87;100969.28;5041382;28;45419;-43
2022/02/04 15:25:53;;;;;;;;;1.00;0.00;;;;;11.80;62.92;100968.56;5041433;28;45271;-43
2022/02/04 15:30:59;;;;;;;;;0.00;0.00;;;;;11.59;62.84;100996.09;5041290;28;46145;-43
2022/02/04 15:33:29;;;;;;;;;1.00;1.00;;;;;11.52;62.93;100996.16;5040982;28;45405;-44
2022/02/04 15:35:56;;;;;;;;;0.00;0.00;;;;;11.43;63.09;100990.16;5041759;28;45315;-41
2022/02/04 15:38:21;;;;;;;;;1.00;0.00;;;;;11.37;62.67;101001.63;5041050;28;45576;-44
2022/02/04 15:40:47;;;;;;;;;1.75;1.75;;;;;11.31;62.78;101009.63;5039496;28;45927;-41
2022/02/04 15:43:14;;;;;;;;;1.00;1.00;;;;;11.25;62.86;101023.72;5040880;28;45236;-42
2022/02/04 15:53:36;;;;;;;;;0.75;0.75;;;;;11.00;62.82;101044.19;5024946;28;45401;-42
2022/02/04 16:04:16;;;;;;;;;0.00;0.00;;;;;10.76;62.61;101067.19;5021176;28;45497;-43
2022/02/04 16:06:43;;;;;;;;;1.00;1.00;;;;;10.68;62.52;101062.03;5040851;28;45299;-42
2022/02/04 16:09:09;;;;;;;;;0.75;0.75;;;;;10.64;62.29;101070.84;5039319;28;46391;-41
2022/02/04 16:12:01;;;;;;;;;0.75;0.75;;;;;10.59;62.42;101069.13;5040349;28;45466;-41
2022/02/04 16:14:28;;;;;;;;;0.00;0.00;;;;;10.55;62.15;101094.53;5039523;28;45560;-41
2022/02/04 16:17:07;;;;;;;;;1.00;1.00;;;;;10.49;62.22;101102.47;5040505;28;45394;-41
2022/02/04 16:19:40;;;;;;;;;0.50;0.50;;;;;10.45;61.78;101119.16;5040629;28;45347;-41
2022/02/04 16:22:16;;;;;;;;;1.00;1.00;;;;;10.42;62.01;101125.31;5040383;28;46217;-41
2022/02/04 16:25:01;;;;;;;;;0.25;0.25;;;;;10.40;61.75;101117.44;5039981;28;45317;-42
2022/02/04 16:30:03;;;;;;;;;1.00;1.00;;;;;10.36;61.78;101141.13;5040257;28;45393;-42
2022/02/04 16:32:29;;;;;;;;;1.75;1.75;;;;;10.37;62.02;101140.25;5040024;28;48171;-41
2022/02/04 16:34:56;;;;;;;;;1.00;1.00;;;;;10.38;62.07;101145.47;5040270;28;45172;-41
2022/02/04 16:37:35;;;;;;;;;1.25;1.25;;;;;10.39;61.74;101151.63;5040489;28;45414;-42
2022/02/04 16:40:16;;;;;;;;;2.25;1.75;;;;;10.34;61.44;101148.09;5039906;28;45506;-42
2022/02/04 16:42:43;;;;;;;;;1.00;1.00;;;;;10.34;61.41;101167.38;5039641;28;46347;-43
2022/02/04 16:45:09;;;;;;;;;1.00;1.00;;;;;10.28;61.30;101158.66;5040215;28;45318;-41
2022/02/04 16:47:35;;;;;;;;;0.00;0.00;;;;;10.30;61.07;101167.38;5040169;28;45389;-40
2022/02/04 16:50:01;;;;;;;;;0.75;0.25;;;;;10.28;61.14;101171.81;5040145;28;45243;-40
2022/02/04 16:52:30;;;;;;;;;1.00;1.00;;;;;10.27;60.91;101170.06;5039678;28;45358;-40
2022/02/04 16:54:57;;;;;;;;;1.00;1.00;;;;;10.25;61.19;101178.81;5039855;28;45257;-40
2022/02/04 16:57:24;;;;;;;;;2.00;1.00;;;;;10.25;61.06;101185.78;5039785;28;45412;-40
2022/02/04 16:59:53;;;;;;;;;1.00;1.00;;;;;10.21;60.97;101192.84;5039492;28;45264;-42
2022/02/04 17:02:19;;;;;;;;;1.25;0.25;;;;;10.20;60.77;101200.72;5038457;28;45428;-40
2022/02/04 17:04:45;;;;;;;;;2.50;1.00;;;;;10.18;60.40;101203.34;5039919;28;45401;-40
2022/02/04 17:07:21;;;;;;;;;1.00;1.00;;;;;10.13;60.31;101207.75;5039840;28;45838;-40
2022/02/04 17:09:50;;;;;;;;;1.00;1.00;;;;;10.07;60.31;101210.41;5039724;28;45371;-40
2022/02/04 17:12:25;;;;;;;;;2.50;1.00;;;;;10.04;60.02;101216.56;5039526;28;45406;-40
2022/02/04 17:14:51;;;;;;;;;0.50;0.50;;;;;10.01;59.99;101219.19;5039251;28;45375;-41
2022/02/04 17:17:22;;;;;;;;;1.00;1.00;;;;;9.98;60.08;101231.47;5032042;28;45231;-42
2022/02/04 17:19:53;;;;;;;;;2.75;1.75;;;;;9.95;59.82;101240.22;5038009;28;45460;-40
2022/02/04 17:22:18;;;;;;;;;2.00;1.00;;;;;9.89;59.75;101251.63;5038587;28;46088;-42
2022/02/04 17:24:48;;;;;;;;;2.00;1.25;;;;;9.83;59.69;101251.63;5038041;28;45343;-43
2022/02/04 17:27:14;;;;;;;;;0.00;0.00;;;;;9.82;59.91;101265.63;5042159;28;45481;-40
2022/02/04 17:29:40;;;;;;;;;4.00;1.50;;;;;9.75;59.87;101267.41;5038560;28;45467;-47
2022/02/04 17:32:06;;;;;;;;;2.25;1.25;;;;;9.72;59.45;101263.91;5041747;28;46542;-42
2022/02/04 17:34:32;;;;;;;;;1.25;1.25;;;;;9.70;59.45;101271.78;5040962;28;45784;-41
2022/02/04 17:36:57;;;;;;;;;2.25;1.75;;;;;9.69;59.54;101280.53;5041738;28;45146;-40
2022/02/04 17:39:25;;;;;;;;;4.25;1.75;;;;;9.67;59.41;101287.56;5043004;28;45610;-40
2022/02/04 17:41:54;;;;;;;;;0.75;0.50;;;;;9.66;59.65;101287.53;5043556;28;46803;-41
2022/02/04 17:44:20;;;;;;;;;1.75;1.25;;;;;9.62;59.59;101299.78;5040955;28;45390;-41
2022/02/04 17:46:47;;;;;;;;;3.25;1.00;;;;;9.61;59.31;101298.06;5042197;28;45481;-41
2022/02/04 17:49:16;;;;;;;;;2.00;1.00;;;;;9.59;59.52;101305.06;5042688;28;45145;-40
2022/02/04 17:51:59;;;;;;;;;4.50;2.00;;;;;9.56;59.61;101299.81;5050917;28;45572;-41